createdAt,value
2023-05-17T00:01:15.205Z,7.4
2023-05-17T00:03:15.034Z,7.5
2023-05-17T00:05:14.797Z,7.7
2023-05-17T00:07:14.962Z,7.5
2023-05-17T00:09:14.070Z,7.6
2023-05-17T00:11:13.831Z,7.4
2023-05-17T00:13:13.429Z,7.5
2023-05-17T00:15:13.698Z,7.6
2023-05-17T00:17:12.918Z,7.4
2023-05-17T00:21:12.317Z,7.0
2023-05-17T00:23:11.855Z,7.0
2023-05-17T00:25:12.181Z,6.7
2023-05-17T00:27:11.285Z,6.6
2023-05-17T00:29:10.940Z,6.7
2023-05-17T00:31:10.731Z,6.8
2023-05-17T00:33:10.362Z,6.8
2023-05-17T00:35:10.093Z,6.5
2023-05-17T00:37:09.704Z,6.6
2023-05-17T00:39:09.578Z,6.2
2023-05-17T00:45:09.856Z,6.5
2023-05-17T00:47:08.093Z,6.3
2023-05-17T00:49:07.665Z,6.2
2023-05-17T00:51:07.598Z,6.3
2023-05-17T00:53:08.353Z,6.2
2023-05-17T00:55:07.032Z,6.2
2023-05-17T00:57:06.941Z,6.3
2023-05-17T01:01:05.887Z,6.1
2023-05-17T01:03:05.893Z,6.4
2023-05-17T01:05:05.889Z,6.4
2023-05-17T01:07:04.870Z,6.6
2023-05-17T01:09:05.206Z,6.4
2023-05-17T01:11:13.795Z,6.4
2023-05-17T01:13:09.141Z,6.6
2023-05-17T01:15:13.491Z,6.5
2023-05-17T01:17:10.592Z,6.2
2023-05-17T01:19:10.111Z,6.4
2023-05-17T01:21:16.638Z,6.5
2023-05-17T01:23:12.517Z,6.6
2023-05-17T01:25:11.104Z,6.6
2023-05-17T01:27:04.333Z,6.5
2023-05-17T01:31:02.913Z,6.4
2023-05-17T01:35:02.786Z,6.5
2023-05-17T01:37:00.031Z,6.4
2023-05-17T01:41:06.012Z,6.3
2023-05-17T01:43:07.910Z,6.3
2023-05-17T01:45:05.181Z,6.2
2023-05-17T01:47:03.381Z,6.5
2023-05-17T01:49:06.712Z,6.4
2023-05-17T01:53:02.253Z,6.3
2023-05-17T01:55:05.577Z,6.4
2023-05-17T01:56:58.205Z,6.3
2023-05-17T01:58:58.262Z,6.2
2023-05-17T02:00:59.602Z,6.2
2023-05-17T02:02:55.550Z,6.0
2023-05-17T02:04:55.172Z,5.9
2023-05-17T02:06:54.981Z,6.0
2023-05-17T02:08:54.418Z,6.0
2023-05-17T02:10:54.066Z,5.9
2023-05-17T02:12:53.639Z,6.1
2023-05-17T02:14:53.438Z,6.1
2023-05-17T02:16:52.922Z,5.8
2023-05-17T02:18:52.723Z,5.9
2023-05-17T02:20:52.868Z,5.9
2023-05-17T02:22:51.897Z,5.9
2023-05-17T02:24:51.573Z,5.7
2023-05-17T02:26:51.205Z,5.8
2023-05-17T02:28:50.921Z,5.6
2023-05-17T02:30:51.981Z,5.8
2023-05-17T02:32:50.994Z,5.6
2023-05-17T02:34:50.017Z,5.7
2023-05-17T02:36:49.488Z,5.5
2023-05-17T02:38:49.602Z,5.6
2023-05-17T02:40:48.743Z,5.4
2023-05-17T02:42:48.544Z,5.5
2023-05-17T02:44:51.818Z,5.3
2023-05-17T02:46:47.790Z,5.4
2023-05-17T02:48:47.364Z,5.4
2023-05-17T02:50:47.179Z,5.3
2023-05-17T02:52:46.703Z,5.5
2023-05-17T02:54:46.897Z,5.4
2023-05-17T02:56:45.917Z,5.7
2023-05-17T02:58:45.691Z,5.7
2023-05-17T03:00:45.288Z,5.7
2023-05-17T03:02:45.121Z,5.7
2023-05-17T03:04:44.865Z,5.8
2023-05-17T03:06:44.169Z,5.6
2023-05-17T03:08:43.790Z,5.6
2023-05-17T03:10:43.493Z,5.5
2023-05-17T03:12:43.093Z,5.6
2023-05-17T03:14:42.788Z,5.6
2023-05-17T03:16:42.543Z,5.6
2023-05-17T03:18:42.348Z,5.5
2023-05-17T03:20:41.924Z,5.4
2023-05-17T03:22:41.366Z,5.6
2023-05-17T03:26:40.703Z,5.4
2023-05-17T03:28:40.315Z,5.4
2023-05-17T03:30:40.286Z,5.4
2023-05-17T03:32:40.173Z,5.6
2023-05-17T03:34:39.349Z,5.4
2023-05-17T03:36:39.407Z,5.3
2023-05-17T03:40:38.506Z,5.0
2023-05-17T03:42:37.885Z,5.2
2023-05-17T03:44:37.503Z,5.2
2023-05-17T03:46:37.005Z,5.3
2023-05-17T03:48:36.739Z,5.0
2023-05-17T03:50:36.338Z,5.2
2023-05-17T03:52:36.023Z,5.0
2023-05-17T03:54:35.640Z,4.9
2023-05-17T03:56:35.147Z,5.0
2023-05-17T04:00:35.401Z,4.9
2023-05-17T04:02:34.083Z,5.0
2023-05-17T04:04:33.988Z,4.9
2023-05-17T04:06:33.556Z,5.2
2023-05-17T04:08:33.230Z,5.1
2023-05-17T04:10:32.845Z,5.0
2023-05-17T04:12:32.502Z,5.0
2023-05-17T04:14:32.124Z,5.2
2023-05-17T04:16:31.833Z,5.2
2023-05-17T04:18:34.062Z,5.2
2023-05-17T04:20:31.122Z,5.3
2023-05-17T04:22:30.581Z,5.4
2023-05-17T04:24:30.303Z,5.5
2023-05-17T04:26:31.118Z,5.6
2023-05-17T04:28:30.153Z,5.6
2023-05-17T04:30:29.371Z,5.8
2023-05-17T04:32:29.024Z,5.8
2023-05-17T04:34:30.830Z,5.9
2023-05-17T04:36:29.095Z,5.9
2023-05-17T04:40:27.519Z,6.2
2023-05-17T04:42:27.230Z,6.3
2023-05-17T04:44:26.838Z,6.3
2023-05-17T04:46:26.422Z,6.4
2023-05-17T04:48:26.708Z,6.5
2023-05-17T04:50:26.189Z,6.5
2023-05-17T04:52:25.523Z,6.6
2023-05-17T04:54:25.331Z,6.7
2023-05-17T04:56:24.875Z,6.7
2023-05-17T04:58:24.863Z,6.8
2023-05-17T05:00:24.046Z,6.8
2023-05-17T05:02:23.952Z,6.9
2023-05-17T05:04:24.522Z,6.8
2023-05-17T05:06:22.998Z,6.9
2023-05-17T05:08:22.790Z,7.0
2023-05-17T05:10:22.695Z,7.1
2023-05-17T05:12:22.514Z,7.1
2023-05-17T05:14:21.595Z,7.1
2023-05-17T05:16:21.339Z,7.0
2023-05-17T05:18:21.058Z,7.2
2023-05-17T05:20:20.711Z,7.3
2023-05-17T05:22:20.209Z,7.3
2023-05-17T05:24:19.892Z,7.4
2023-05-17T05:26:19.560Z,7.4
2023-05-17T05:30:21.195Z,7.4
2023-05-17T05:32:18.617Z,7.4
2023-05-17T05:34:18.137Z,7.5
2023-05-17T05:36:17.985Z,7.6
2023-05-17T05:38:17.639Z,7.7
2023-05-17T05:40:17.424Z,7.7
2023-05-17T05:42:17.526Z,7.8
2023-05-17T05:44:16.730Z,7.9
2023-05-17T05:46:16.293Z,8.1
2023-05-17T05:48:15.940Z,8.2
2023-05-17T05:50:15.730Z,8.3
2023-05-17T05:52:15.312Z,8.4
2023-05-17T05:54:15.254Z,8.6
2023-05-17T05:56:14.647Z,8.6
2023-05-17T05:58:14.702Z,8.6
2023-05-17T06:00:14.747Z,8.9
2023-05-17T06:02:13.686Z,8.8
2023-05-17T06:04:13.419Z,8.8
2023-05-17T06:06:15.547Z,8.8
2023-05-17T06:08:12.687Z,8.8
2023-05-17T06:10:12.351Z,8.9
2023-05-17T06:12:12.509Z,9.0
2023-05-17T06:14:12.002Z,9.1
2023-05-17T06:16:11.717Z,9.4
2023-05-17T06:18:11.310Z,9.4
2023-05-17T06:20:11.071Z,9.4
2023-05-17T06:22:10.527Z,9.4
2023-05-17T06:24:10.407Z,9.6
2023-05-17T06:26:10.229Z,9.7
2023-05-17T06:28:09.784Z,9.7
2023-05-17T06:30:10.142Z,9.8
2023-05-17T06:32:09.642Z,9.9
2023-05-17T06:34:08.972Z,9.9
2023-05-17T06:36:08.701Z,10.0
2023-05-17T06:38:08.236Z,10.0
2023-05-17T06:40:15.380Z,10.0
2023-05-17T06:46:07.234Z,10.0
2023-05-17T06:48:07.006Z,10.2
2023-05-17T06:52:06.369Z,10.1
2023-05-17T06:54:06.177Z,10.3
2023-05-17T06:56:06.077Z,10.3
2023-05-17T06:58:05.655Z,10.5
2023-05-17T07:00:09.434Z,10.5
2023-05-17T07:02:05.742Z,10.5
2023-05-17T07:04:04.881Z,10.8
2023-05-17T07:06:04.682Z,10.8
2023-05-17T07:08:04.239Z,10.9
2023-05-17T07:12:04.952Z,11.0
2023-05-17T07:14:03.700Z,10.8
2023-05-17T07:16:03.574Z,10.6
2023-05-17T07:18:03.349Z,10.8
2023-05-17T07:20:05.078Z,10.8
2023-05-17T07:22:02.485Z,10.7
2023-05-17T07:24:02.427Z,10.9
2023-05-17T07:26:02.068Z,10.9
2023-05-17T07:28:01.785Z,10.9
2023-05-17T07:30:02.447Z,10.9
2023-05-17T07:32:01.784Z,11.0
2023-05-17T07:34:00.979Z,11.2
2023-05-17T07:36:00.862Z,11.4
2023-05-17T07:40:00.350Z,11.7
2023-05-17T07:42:00.155Z,11.7
2023-05-17T07:43:59.686Z,11.3
2023-05-17T07:46:00.602Z,11.1
2023-05-17T07:47:59.639Z,11.2
2023-05-17T07:49:58.915Z,11.3
2023-05-17T07:51:58.838Z,11.2
2023-05-17T07:53:58.637Z,11.3
2023-05-17T07:55:58.197Z,11.3
2023-05-17T07:57:57.952Z,11.3
2023-05-17T07:59:57.795Z,11.2
2023-05-17T08:01:57.501Z,11.1
2023-05-17T08:03:57.434Z,11.2
2023-05-17T08:05:56.987Z,11.3
2023-05-17T08:07:59.138Z,11.1
2023-05-17T08:09:56.433Z,11.3
2023-05-17T08:11:56.457Z,11.3
2023-05-17T08:13:56.162Z,11.4
2023-05-17T08:16:05.341Z,11.6
2023-05-17T08:17:55.935Z,11.8
2023-05-17T08:19:55.685Z,11.8
2023-05-17T08:21:55.145Z,11.9
2023-05-17T08:23:54.918Z,12.2
2023-05-17T08:25:55.164Z,12.2
2023-05-17T08:27:54.428Z,12.3
2023-05-17T08:31:55.217Z,12.2
2023-05-17T08:33:53.815Z,12.2
2023-05-17T08:35:54.280Z,12.2
2023-05-17T08:39:52.978Z,12.4
2023-05-17T08:41:52.959Z,12.4
2023-05-17T08:43:54.208Z,12.5
2023-05-17T08:45:53.367Z,12.8
2023-05-17T08:47:53.394Z,12.9
2023-05-17T08:49:54.810Z,12.5
2023-05-17T08:51:53.657Z,12.4
2023-05-17T08:53:51.492Z,12.3
2023-05-17T08:55:56.770Z,12.3
2023-05-17T08:57:51.525Z,12.4
2023-05-17T08:59:52.409Z,12.4
2023-05-17T09:01:52.322Z,12.4
2023-05-17T09:07:50.139Z,12.3
2023-05-17T09:09:51.945Z,12.3
2023-05-17T09:11:50.429Z,12.3
2023-05-17T09:13:49.188Z,12.3
2023-05-17T09:15:48.984Z,12.2
2023-05-17T09:24:01.659Z,12.4
2023-05-17T09:25:48.346Z,12.5
2023-05-17T09:27:47.582Z,12.4
2023-05-17T09:29:47.445Z,12.6
2023-05-17T09:31:47.117Z,12.8
2023-05-17T09:33:49.151Z,12.7
2023-05-17T09:35:46.805Z,13.1
2023-05-17T09:37:46.520Z,13.1
2023-05-17T09:45:55.669Z,13.3
2023-05-17T09:47:45.621Z,13.3
2023-05-17T09:49:45.405Z,13.4
2023-05-17T09:51:47.705Z,13.5
2023-05-17T09:53:45.006Z,13.4
2023-05-17T09:55:47.104Z,13.6
2023-05-17T09:57:46.140Z,13.6
2023-05-17T09:59:45.583Z,13.5
2023-05-17T10:01:44.249Z,13.8
2023-05-17T10:03:44.655Z,13.7
2023-05-17T10:05:45.634Z,13.8
2023-05-17T10:07:45.346Z,13.7
2023-05-17T10:09:43.681Z,13.7
2023-05-17T10:11:46.005Z,13.5
2023-05-17T10:13:48.652Z,13.7
2023-05-17T10:15:43.414Z,13.8
2023-05-17T10:17:45.558Z,14.1
2023-05-17T10:19:43.694Z,14.2
2023-05-17T10:21:43.102Z,14.2
2023-05-17T10:23:43.201Z,14.3
2023-05-17T10:27:42.339Z,14.5
2023-05-17T10:29:43.392Z,14.1
2023-05-17T10:31:42.614Z,14.2
2023-05-17T10:33:43.366Z,14.4
2023-05-17T10:35:43.206Z,14.2
2023-05-17T10:37:40.887Z,14.2
2023-05-17T10:39:45.709Z,14.2
2023-05-17T10:41:43.066Z,14.3
2023-05-17T10:43:42.047Z,13.9
2023-05-17T10:45:40.524Z,13.7
2023-05-17T10:47:41.508Z,13.8
2023-05-17T10:49:40.932Z,14.0
2023-05-17T10:51:39.777Z,14.0
2023-05-17T10:53:59.140Z,14.0
2023-05-17T10:55:40.818Z,14.2
2023-05-17T11:01:49.281Z,14.4
2023-05-17T11:03:39.678Z,14.2
2023-05-17T11:05:41.790Z,14.2
2023-05-17T11:07:38.779Z,14.0
2023-05-17T11:11:57.641Z,14.1
2023-05-17T11:13:51.030Z,14.0
2023-05-17T11:15:37.618Z,13.9
2023-05-17T11:17:49.405Z,14.1
2023-05-17T11:19:37.318Z,14.5
2023-05-17T11:21:45.322Z,13.9
2023-05-17T11:23:37.909Z,14.2
2023-05-17T11:25:39.861Z,14.3
2023-05-17T11:27:44.816Z,14.5
2023-05-17T11:29:39.624Z,14.7
2023-05-17T11:31:42.665Z,14.7
2023-05-17T11:33:38.159Z,14.4
2023-05-17T11:35:38.423Z,14.5
2023-05-17T11:39:35.744Z,14.3
2023-05-17T11:41:37.586Z,14.6
2023-05-17T11:43:35.554Z,14.7
2023-05-17T11:45:41.302Z,14.8
2023-05-17T11:47:38.695Z,14.8
2023-05-17T11:49:37.312Z,15.0
2023-05-17T11:51:35.173Z,15.0
2023-05-17T11:53:35.377Z,15.0
2023-05-17T11:55:37.460Z,15.0
2023-05-17T11:57:38.803Z,14.9
2023-05-17T12:01:42.034Z,14.6
2023-05-17T12:03:34.109Z,14.7
2023-05-17T12:05:34.608Z,14.8
2023-05-17T12:07:33.869Z,15.0
2023-05-17T12:09:33.825Z,15.1
2023-05-17T12:11:33.939Z,14.6
2023-05-17T12:13:34.670Z,14.8
2023-05-17T12:15:33.327Z,15.1
2023-05-17T12:17:37.528Z,14.9
2023-05-17T12:19:32.911Z,15.0
2023-05-17T12:21:32.451Z,15.1
2023-05-17T12:23:34.544Z,15.3
2023-05-17T12:25:32.079Z,15.4
2023-05-17T12:27:31.981Z,15.2
2023-05-17T12:29:32.173Z,14.9
2023-05-17T12:31:33.719Z,15.0
2023-05-17T12:33:33.836Z,14.8
2023-05-17T12:35:31.632Z,15.0
2023-05-17T12:41:31.743Z,15.2
2023-05-17T12:43:32.798Z,15.4
2023-05-17T12:45:31.292Z,15.5
2023-05-17T12:49:30.280Z,15.1
2023-05-17T12:51:39.993Z,15.3
2023-05-17T12:53:35.237Z,15.7
2023-05-17T12:55:35.443Z,15.0
2023-05-17T12:57:29.907Z,14.7
2023-05-17T12:59:30.282Z,15.0
2023-05-17T13:01:32.279Z,15.2
2023-05-17T13:03:30.063Z,15.3
2023-05-17T13:05:29.120Z,15.8
2023-05-17T13:07:28.851Z,15.5
2023-05-17T13:09:30.102Z,15.4
2023-05-17T13:11:28.618Z,15.8
2023-05-17T13:13:32.094Z,15.7
2023-05-17T13:15:29.496Z,15.8
2023-05-17T13:21:28.010Z,15.4
2023-05-17T13:23:28.007Z,15.3
2023-05-17T13:25:27.725Z,15.5
2023-05-17T13:27:27.627Z,15.6
2023-05-17T13:29:38.254Z,15.6
2023-05-17T13:31:27.281Z,15.3
2023-05-17T13:33:27.699Z,15.3
2023-05-17T13:35:26.948Z,15.4
2023-05-17T13:37:26.876Z,15.5
2023-05-17T13:39:26.842Z,15.5
2023-05-17T13:41:26.572Z,15.6
2023-05-17T13:49:27.380Z,15.5
2023-05-17T13:51:25.974Z,15.1
2023-05-17T13:53:25.758Z,15.4
2023-05-17T13:55:25.674Z,15.6
2023-05-17T13:57:25.724Z,15.7
2023-05-17T14:01:25.684Z,15.8
2023-05-17T14:03:25.266Z,16.0
2023-05-17T14:05:24.867Z,15.5
2023-05-17T14:07:24.762Z,15.5
2023-05-17T14:11:24.807Z,14.9
2023-05-17T14:13:26.208Z,15.3
2023-05-17T14:15:26.378Z,15.2
2023-05-17T14:17:24.076Z,15.0
2023-05-17T14:19:24.091Z,15.1
2023-05-17T14:21:23.873Z,15.2
2023-05-17T14:23:23.624Z,15.4
2023-05-17T14:25:24.346Z,15.5
2023-05-17T14:27:23.428Z,15.3
2023-05-17T14:29:23.357Z,15.4
2023-05-17T14:31:23.477Z,15.5
2023-05-17T14:33:23.193Z,15.5
2023-05-17T14:35:22.803Z,15.6
2023-05-17T14:37:22.673Z,15.4
2023-05-17T14:39:22.528Z,15.3
2023-05-17T14:41:22.404Z,15.5
2023-05-17T14:43:22.349Z,15.6
2023-05-17T14:45:22.545Z,15.5
2023-05-17T14:47:22.344Z,15.6
2023-05-17T14:51:21.835Z,15.3
2023-05-17T14:53:22.295Z,15.4
2023-05-17T14:57:21.447Z,15.5
2023-05-17T14:59:21.342Z,15.9
2023-05-17T15:01:20.960Z,16.0
2023-05-17T15:03:22.358Z,15.7
2023-05-17T15:05:20.968Z,15.1
2023-05-17T15:07:20.548Z,15.2
2023-05-17T15:09:22.994Z,15.4
2023-05-17T15:11:20.875Z,15.5
2023-05-17T15:13:20.572Z,15.5
2023-05-17T15:15:21.081Z,15.6
2023-05-17T15:21:20.124Z,15.4
2023-05-17T15:23:19.967Z,15.1
2023-05-17T15:25:19.445Z,15.4
2023-05-17T15:27:19.094Z,15.6
2023-05-17T15:29:19.061Z,15.6
2023-05-17T15:31:19.158Z,15.4
2023-05-17T15:33:18.859Z,15.6
2023-05-17T15:35:18.766Z,15.5
2023-05-17T15:39:18.560Z,15.1
2023-05-17T15:41:21.256Z,15.2
2023-05-17T15:43:18.154Z,15.4
2023-05-17T15:47:18.436Z,15.6
2023-05-17T15:53:17.425Z,15.6
2023-05-17T15:55:17.423Z,15.4
2023-05-17T15:57:17.854Z,15.3
2023-05-17T15:59:17.167Z,15.0
2023-05-17T16:03:16.563Z,14.9
2023-05-17T16:05:16.498Z,15.1
2023-05-17T16:07:16.637Z,15.3
2023-05-17T16:09:16.251Z,15.3
2023-05-17T16:11:16.212Z,15.2
2023-05-17T16:13:15.844Z,14.9
2023-05-17T16:15:15.705Z,15.1
2023-05-17T16:17:15.607Z,15.0
2023-05-17T16:19:15.438Z,14.8
2023-05-17T16:21:15.289Z,14.8
2023-05-17T16:23:15.725Z,15.0
2023-05-17T16:25:15.909Z,14.9
2023-05-17T16:27:14.777Z,15.0
2023-05-17T16:29:15.861Z,15.0
2023-05-17T16:33:15.075Z,15.0
2023-05-17T16:35:15.987Z,14.8
2023-05-17T16:37:13.993Z,14.7
2023-05-17T16:39:14.078Z,14.7
2023-05-17T16:41:13.951Z,14.5
2023-05-17T16:43:15.095Z,14.7
2023-05-17T16:45:13.398Z,14.6
2023-05-17T16:49:13.355Z,14.5
2023-05-17T16:51:13.054Z,14.3
2023-05-17T16:53:12.797Z,14.5
2023-05-17T16:55:12.785Z,14.5
2023-05-17T16:57:13.701Z,14.6
2023-05-17T17:01:12.179Z,14.6
2023-05-17T17:03:12.234Z,14.7
2023-05-17T17:05:11.860Z,14.7
2023-05-17T17:07:11.673Z,14.8
2023-05-17T17:11:11.412Z,14.4
2023-05-17T17:13:11.198Z,14.2
2023-05-17T17:15:11.051Z,14.3
2023-05-17T17:19:11.083Z,14.3
2023-05-17T17:21:10.499Z,14.2
2023-05-17T17:23:10.516Z,14.3
2023-05-17T17:25:10.420Z,14.3
2023-05-17T17:27:10.581Z,14.3
2023-05-17T17:29:09.970Z,14.3
2023-05-17T17:31:10.099Z,14.3
2023-05-17T17:33:09.642Z,14.3
2023-05-17T17:35:09.473Z,14.3
2023-05-17T17:37:09.363Z,14.4
2023-05-17T17:39:13.163Z,14.4
2023-05-17T17:41:08.974Z,14.4
2023-05-17T17:43:08.747Z,14.4
2023-05-17T17:45:09.078Z,14.4
2023-05-17T17:47:08.570Z,14.3
2023-05-17T17:49:08.348Z,14.3
2023-05-17T17:51:08.220Z,14.3
2023-05-17T17:53:08.070Z,14.4
2023-05-17T17:55:09.735Z,14.2
2023-05-17T17:57:07.624Z,14.1
2023-05-17T17:59:07.432Z,14.1
2023-05-17T18:01:07.405Z,14.0
2023-05-17T18:03:07.226Z,14.1
2023-05-17T18:07:06.956Z,13.8
2023-05-17T18:09:07.099Z,13.9
2023-05-17T18:11:06.476Z,13.9
2023-05-17T18:13:06.336Z,13.8
2023-05-17T18:15:06.619Z,13.8
2023-05-17T18:17:07.132Z,13.8
2023-05-17T18:19:06.079Z,13.7
2023-05-17T18:21:06.217Z,13.7
2023-05-17T18:23:05.471Z,13.7
2023-05-17T18:25:05.836Z,13.7
2023-05-17T18:27:05.324Z,13.5
2023-05-17T18:29:05.073Z,13.5
2023-05-17T18:31:04.874Z,13.6
2023-05-17T18:33:06.047Z,13.6
2023-05-17T18:35:05.229Z,13.4
2023-05-17T18:37:04.634Z,13.5
2023-05-17T18:39:04.636Z,13.3
2023-05-17T18:41:04.229Z,13.4
2023-05-17T18:43:03.777Z,13.5
2023-05-17T18:45:04.082Z,13.2
2023-05-17T18:47:03.649Z,13.1
2023-05-17T18:49:03.364Z,13.2
2023-05-17T18:51:03.034Z,13.2
2023-05-17T18:53:02.899Z,13.0
2023-05-17T18:55:03.280Z,13.0
2023-05-17T18:57:02.707Z,12.8
2023-05-17T19:01:02.226Z,12.6
2023-05-17T19:03:03.318Z,12.6
2023-05-17T19:05:01.761Z,12.5
2023-05-17T19:07:02.382Z,12.5
2023-05-17T19:09:01.625Z,12.3
2023-05-17T19:11:03.062Z,12.3
2023-05-17T19:13:00.938Z,12.1
2023-05-17T19:15:00.761Z,12.1
2023-05-17T19:17:00.623Z,12.1
2023-05-17T19:19:00.603Z,12.1
2023-05-17T19:21:00.244Z,12.0
2023-05-17T19:24:59.824Z,11.9
2023-05-17T19:28:59.368Z,11.9
2023-05-17T19:30:59.491Z,11.8
2023-05-17T19:32:59.022Z,11.6
2023-05-17T19:34:58.940Z,11.5
2023-05-17T19:36:58.773Z,11.4
2023-05-17T19:38:58.496Z,11.4
2023-05-17T19:40:58.364Z,11.3
2023-05-17T19:42:57.991Z,11.3
2023-05-17T19:46:57.563Z,10.8
2023-05-17T19:48:57.325Z,10.5
2023-05-17T19:50:57.183Z,10.7
2023-05-17T19:52:57.035Z,10.4
2023-05-17T19:56:57.184Z,10.5
2023-05-17T19:58:56.309Z,10.6
2023-05-17T20:00:55.987Z,10.5
2023-05-17T20:02:56.204Z,10.3
2023-05-17T20:04:55.933Z,9.8
2023-05-17T20:06:55.375Z,10.0
2023-05-17T20:08:55.255Z,10.0
2023-05-17T20:10:55.239Z,10.2
2023-05-17T20:12:54.974Z,9.9
2023-05-17T20:14:54.449Z,9.9
2023-05-17T20:16:54.747Z,9.7
2023-05-17T20:18:54.265Z,9.7
2023-05-17T20:20:54.825Z,9.7
2023-05-17T20:22:53.581Z,9.7
2023-05-17T20:24:54.300Z,9.7
2023-05-17T20:26:53.160Z,9.6
2023-05-17T20:30:54.633Z,9.2
2023-05-17T20:32:52.381Z,9.1
2023-05-17T20:34:52.394Z,8.9
2023-05-17T20:36:51.873Z,8.8
2023-05-17T20:40:51.686Z,9.0
2023-05-17T20:44:52.674Z,8.9
2023-05-17T20:46:51.719Z,8.6
2023-05-17T20:48:52.672Z,8.8
2023-05-17T20:50:50.336Z,8.9
2023-05-17T20:54:49.766Z,8.7
2023-05-17T20:56:49.493Z,8.8
2023-05-17T20:58:49.120Z,8.8
2023-05-17T21:00:49.167Z,8.8
2023-05-17T21:02:48.809Z,8.8
2023-05-17T21:08:47.915Z,8.3
2023-05-17T21:10:48.597Z,8.3
2023-05-17T21:12:47.428Z,8.4
2023-05-17T21:14:50.169Z,8.1
2023-05-17T21:22:46.120Z,7.8
2023-05-17T21:24:45.847Z,8.0
2023-05-17T21:26:45.443Z,7.8
2023-05-17T21:34:44.557Z,7.8
2023-05-17T21:36:44.369Z,7.6
2023-05-17T21:40:43.802Z,7.7
2023-05-17T21:42:43.272Z,7.6
2023-05-17T21:44:42.950Z,7.3
2023-05-17T21:46:42.715Z,7.6
2023-05-17T21:48:42.456Z,7.6
2023-05-17T21:52:42.128Z,7.6
2023-05-17T21:54:41.685Z,7.6
2023-05-17T21:56:41.391Z,7.4
2023-05-17T21:58:41.068Z,7.6
2023-05-17T22:00:40.852Z,7.4
2023-05-17T22:04:41.086Z,7.5
2023-05-17T22:06:39.943Z,7.5
2023-05-17T22:08:41.213Z,7.4
2023-05-17T22:10:39.658Z,7.6
2023-05-17T22:12:39.912Z,7.4
2023-05-17T22:14:42.294Z,7.2
2023-05-17T22:16:38.750Z,7.3
2023-05-17T22:18:38.690Z,7.4
2023-05-17T22:20:38.297Z,7.2
2023-05-17T22:22:37.807Z,7.3
2023-05-17T22:24:37.410Z,7.1
2023-05-17T22:26:37.034Z,7.1
2023-05-17T22:28:36.728Z,7.1
2023-05-17T22:30:36.677Z,7.1
2023-05-17T22:32:36.365Z,6.8
2023-05-17T22:34:37.160Z,6.7
2023-05-17T22:36:35.671Z,6.9
2023-05-17T22:38:35.324Z,7.0
2023-05-17T22:40:35.288Z,6.8
2023-05-17T22:42:34.887Z,6.8
2023-05-17T22:44:36.042Z,6.9
2023-05-17T22:46:34.190Z,6.7
2023-05-17T22:48:36.193Z,7.2
2023-05-17T22:50:33.604Z,7.1
2023-05-17T22:52:33.306Z,7.1
2023-05-17T22:54:33.344Z,7.1
2023-05-17T22:56:32.712Z,6.8
2023-05-17T22:58:32.448Z,6.8
2023-05-17T23:02:32.005Z,6.6
2023-05-17T23:04:31.566Z,6.5
2023-05-17T23:06:33.238Z,6.4
2023-05-17T23:08:31.259Z,6.6
2023-05-17T23:10:30.732Z,6.4
2023-05-17T23:12:32.207Z,6.5
2023-05-17T23:14:30.155Z,6.6
2023-05-17T23:18:29.593Z,6.4
2023-05-17T23:20:30.142Z,6.3
2023-05-17T23:22:30.401Z,6.4
2023-05-17T23:24:28.514Z,6.2
2023-05-17T23:26:28.340Z,6.2
2023-05-17T23:28:27.986Z,6.1
2023-05-17T23:30:28.629Z,6.2
2023-05-17T23:32:31.263Z,6.2
2023-05-17T23:34:27.214Z,5.9
2023-05-17T23:36:26.747Z,6.1
2023-05-17T23:38:26.608Z,5.9
2023-05-17T23:40:26.052Z,5.7
2023-05-17T23:42:25.778Z,6.0
2023-05-17T23:44:25.479Z,5.8
2023-05-17T23:46:25.698Z,6.1
2023-05-17T23:48:24.831Z,6.2
2023-05-17T23:50:24.759Z,6.1
2023-05-17T23:52:25.530Z,6.1
2023-05-17T23:54:24.374Z,6.0
2023-05-17T23:56:23.681Z,6.2
2023-05-17T23:58:23.315Z,6.1
